Time;durP1;ratioP1;P1;durP2;ratioP2;P2;SDS_P1;SDS_P2;PMS_P1;PMS_P2;Temp;Humidity;BMP_temperature;BMP_pressure;BME280_temperature;BME280_humidity;BME280_pressure;Samples;Min_cycle;Max_cycle;Signal;HPM_P1;HPM_P2
2021/06/13 00:02:01;;;;;;;21.38;8.02;;;;;;;-145.50;100.00;65435.88;4913209;29;20142;-43
2021/06/13 00:04:27;;;;;;;29.58;9.32;;;;;;;-145.50;100.00;65435.88;4918855;29;20151;-42
2021/06/13 00:06:54;;;;;;;27.52;9.23;;;;;;;-145.50;100.00;65435.88;4917040;29;20083;-42
2021/06/13 00:09:20;;;;;;;24.23;8.85;;;;;;;-145.50;100.00;65435.88;4920600;29;20650;-42
2021/06/13 00:11:48;;;;;;;21.92;9.43;;;;;;;-145.50;100.00;65435.88;4921762;29;20582;-44
2021/06/13 00:14:16;;;;;;;22.88;9.20;;;;;;;-145.50;100.00;65435.88;4929333;29;20087;-43
2021/06/13 00:16:43;;;;;;;24.50;8.93;;;;;;;-145.50;100.00;65435.88;4916014;28;20138;-42
2021/06/13 00:19:09;;;;;;;24.80;8.45;;;;;;;-145.50;100.00;65435.88;4923641;29;20091;-43
2021/06/13 00:21:36;;;;;;;26.70;10.57;;;;;;;-145.50;100.00;65435.88;4924381;29;20154;-43
2021/06/13 00:24:04;;;;;;;22.02;9.60;;;;;;;-145.50;100.00;65435.88;4912884;29;20081;-43
2021/06/13 00:26:31;;;;;;;21.75;9.20;;;;;;;-145.50;100.00;65435.88;4892543;29;21682;-42
2021/06/13 00:28:58;;;;;;;22.85;8.07;;;;;;;-145.50;100.00;65435.88;4903991;29;20075;-47
2021/06/13 00:31:25;;;;;;;25.67;8.65;;;;;;;-145.50;100.00;65435.88;4915497;29;20087;-43
2021/06/13 00:33:52;;;;;;;25.50;8.30;;;;;;;-145.50;100.00;65435.88;4911208;29;20052;-43
2021/06/13 00:36:19;;;;;;;24.90;8.77;;;;;;;-145.50;100.00;65435.88;4913458;29;20143;-43
2021/06/13 00:38:46;;;;;;;27.70;9.55;;;;;;;-145.50;100.00;65435.88;4895856;29;20087;-42
2021/06/13 00:41:18;;;;;;;23.13;8.70;;;;;;;-145.50;100.00;65435.88;4923940;29;20143;-43
2021/06/13 00:43:45;;;;;;;19.38;8.85;;;;;;;-145.50;100.00;65435.88;4906821;29;20131;-44
2021/06/13 00:46:12;;;;;;;29.33;9.80;;;;;;;-145.50;100.00;65435.88;4904814;29;20155;-44
2021/06/13 00:48:38;;;;;;;25.30;9.20;;;;;;;-145.50;100.00;65435.88;4921900;29;20090;-43
2021/06/13 00:51:05;;;;;;;19.42;7.90;;;;;;;-145.50;100.00;65435.88;4912792;29;20150;-45
2021/06/13 00:53:33;;;;;;;24.30;9.90;;;;;;;-145.50;100.00;65435.88;4919671;29;20131;-43
2021/06/13 00:56:00;;;;;;;22.07;9.73;;;;;;;-145.50;100.00;65435.88;4908290;29;20152;-42
2021/06/13 00:58:27;;;;;;;29.25;9.35;;;;;;;-145.50;100.00;65435.88;4915217;29;20051;-43
2021/06/13 01:00:53;;;;;;;24.42;9.50;;;;;;;-145.50;100.00;65435.88;4921142;29;20091;-44
2021/06/13 01:03:20;;;;;;;20.23;8.00;;;;;;;-145.50;100.00;65435.88;4910242;29;20088;-45
2021/06/13 01:05:47;;;;;;;25.17;9.43;;;;;;;-145.50;100.00;65435.88;4908395;29;20128;-44
2021/06/13 01:08:30;;;;;;;25.38;9.52;;;;;;;-145.50;100.00;65435.88;4919004;29;20140;-42
2021/06/13 01:11:17;;;;;;;30.63;10.30;;;;;;;-145.50;100.00;65435.88;4914458;29;20135;-43
2021/06/13 01:14:06;;;;;;;28.67;9.60;;;;;;;-145.50;100.00;65435.88;4911938;29;20146;-43
2021/06/13 01:16:47;;;;;;;27.48;9.50;;;;;;;-145.50;100.00;65435.88;4928525;29;20059;-43
2021/06/13 01:19:38;;;;;;;23.27;9.20;;;;;;;-145.50;100.00;65435.88;4912698;29;20392;-45
2021/06/13 01:22:26;;;;;;;27.83;9.85;;;;;;;-145.50;100.00;65435.88;4917191;29;20205;-45
2021/06/13 01:25:26;;;;;;;24.48;9.38;;;;;;;-145.50;100.00;65435.88;4920607;29;20190;-45
2021/06/13 01:28:09;;;;;;;24.70;9.00;;;;;;;-145.50;100.00;65435.88;4927496;29;20095;-43
2021/06/13 01:30:37;;;;;;;32.15;9.32;;;;;;;-145.50;100.00;65435.88;4921563;29;20082;-45
2021/06/13 01:33:08;;;;;;;22.08;9.20;;;;;;;-145.50;100.00;65435.88;4917876;29;20112;-47
2021/06/13 01:35:36;;;;;;;22.60;8.68;;;;;;;-145.50;100.00;65435.88;4898587;29;20060;-44
2021/06/13 01:38:03;;;;;;;23.00;9.07;;;;;;;-145.50;100.00;65435.88;4923297;29;20160;-44
2021/06/13 01:40:35;;;;;;;22.95;9.35;;;;;;;-145.50;100.00;65435.88;4914968;29;20296;-44
2021/06/13 01:43:03;;;;;;;23.67;9.00;;;;;;;-145.50;100.00;65435.88;4926517;29;20142;-43
2021/06/13 01:45:35;;;;;;;27.40;9.80;;;;;;;-145.50;100.00;65435.88;4924963;29;20511;-43
2021/06/13 01:48:02;;;;;;;24.38;9.27;;;;;;;-145.50;100.00;65435.88;4915294;29;20147;-43
2021/06/13 01:50:30;;;;;;;28.83;9.27;;;;;;;-145.50;100.00;65435.88;4909568;29;20095;-42
2021/06/13 01:53:00;;;;;;;22.88;9.10;;;;;;;-145.50;100.00;65435.88;4919193;29;20809;-43
2021/06/13 01:55:27;;;;;;;25.42;8.75;;;;;;;-145.50;100.00;65435.88;4913024;29;20143;-42
2021/06/13 01:57:55;;;;;;;23.73;9.48;;;;;;;-145.50;100.00;65435.88;4922245;29;20147;-44
2021/06/13 02:00:23;;;;;;;23.10;8.55;;;;;;;-145.50;100.00;65435.88;4924602;29;20090;-43
2021/06/13 02:02:52;;;;;;;20.75;9.63;;;;;;;-145.50;100.00;65435.88;4918489;29;20079;-42
2021/06/13 02:05:21;;;;;;;22.02;9.73;;;;;;;-145.50;100.00;65435.88;4927492;29;20130;-43
2021/06/13 02:07:49;;;;;;;22.13;9.05;;;;;;;-145.50;100.00;65435.88;4927068;29;20107;-44
2021/06/13 02:10:19;;;;;;;26.52;9.15;;;;;;;-145.50;100.00;65435.88;4918056;29;20098;-43
2021/06/13 02:12:49;;;;;;;29.13;9.88;;;;;;;-145.50;100.00;65435.88;4924138;29;20059;-43
2021/06/13 02:15:20;;;;;;;27.57;9.80;;;;;;;-145.50;100.00;65435.88;4915615;29;20060;-43
2021/06/13 02:17:48;;;;;;;26.73;9.75;;;;;;;-145.50;100.00;65435.88;4931325;29;20134;-43
2021/06/13 02:20:19;;;;;;;32.75;10.18;;;;;;;-145.50;100.00;65435.88;4920795;29;20874;-42
2021/06/13 02:22:47;;;;;;;18.70;9.27;;;;;;;-145.50;100.00;65435.88;4916321;29;20174;-44
2021/06/13 02:25:14;;;;;;;27.23;9.63;;;;;;;-145.50;100.00;65435.88;4913363;29;20528;-46
2021/06/13 02:27:41;;;;;;;23.75;9.15;;;;;;;-145.50;100.00;65435.88;4886293;29;20135;-44
2021/06/13 02:30:09;;;;;;;28.67;9.52;;;;;;;-145.50;100.00;65435.88;4907247;29;20139;-43
2021/06/13 02:32:40;;;;;;;28.08;10.15;;;;;;;-145.50;100.00;65435.88;4892157;29;20143;-43
2021/06/13 02:35:09;;;;;;;20.25;8.13;;;;;;;-145.50;100.00;65435.88;4917454;29;20143;-43
2021/06/13 02:37:38;;;;;;;22.35;9.02;;;;;;;-145.50;100.00;65435.88;4913213;29;20625;-43
2021/06/13 02:40:10;;;;;;;26.55;9.50;;;;;;;-145.50;100.00;65435.88;4919485;29;20532;-43
2021/06/13 02:42:37;;;;;;;22.27;9.75;;;;;;;-145.50;100.00;65435.88;4894710;29;20089;-43
2021/06/13 02:45:15;;;;;;;25.85;9.23;;;;;;;-145.50;100.00;65435.88;4927384;29;20170;-43
2021/06/13 02:47:42;;;;;;;24.33;9.40;;;;;;;-145.50;100.00;65435.88;4921013;29;20146;-43
2021/06/13 02:50:10;;;;;;;25.23;8.68;;;;;;;-145.50;100.00;65435.88;4927506;29;20166;-44
2021/06/13 02:52:47;;;;;;;27.15;9.75;;;;;;;-145.50;100.00;65435.88;4924147;29;20234;-44
2021/06/13 02:55:19;;;;;;;22.10;9.20;;;;;;;-145.50;100.00;65435.88;4916185;29;20155;-43
2021/06/13 02:57:54;;;;;;;20.27;8.45;;;;;;;-145.50;100.00;65435.88;4916285;29;20124;-43
2021/06/13 03:00:24;;;;;;;21.80;8.77;;;;;;;-145.50;100.00;65435.88;4913869;29;20056;-43
2021/06/13 03:02:53;;;;;;;18.42;8.18;;;;;;;-145.50;100.00;65435.88;4908005;29;20538;-43
2021/06/13 03:05:24;;;;;;;25.63;9.25;;;;;;;-145.50;100.00;65435.88;4915728;29;20837;-44
2021/06/13 03:07:52;;;;;;;26.17;8.43;;;;;;;-145.50;100.00;65435.88;4908021;29;20792;-43
2021/06/13 03:10:20;;;;;;;29.73;10.07;;;;;;;-145.50;100.00;65435.88;4913409;28;20761;-43
2021/06/13 03:12:47;;;;;;;19.40;8.33;;;;;;;-145.50;100.00;65435.88;4924304;29;20139;-46
2021/06/13 03:15:15;;;;;;;21.60;8.60;;;;;;;-145.50;100.00;65435.88;4919955;29;20393;-43
2021/06/13 03:17:43;;;;;;;23.70;8.23;;;;;;;-145.50;100.00;65435.88;4936296;29;20151;-43
2021/06/13 03:20:11;;;;;;;17.25;7.95;;;;;;;-145.50;100.00;65435.88;4925975;29;20071;-42
2021/06/13 03:22:39;;;;;;;22.08;8.43;;;;;;;-145.50;100.00;65435.88;4913471;28;20107;-42
2021/06/13 03:25:07;;;;;;;22.57;8.33;;;;;;;-145.50;100.00;65435.88;4922981;29;20138;-48
2021/06/13 03:27:35;;;;;;;20.38;9.38;;;;;;;-145.50;100.00;65435.88;4914690;29;20326;-44
2021/06/13 03:30:02;;;;;;;25.50;8.95;;;;;;;-145.50;100.00;65435.88;4907023;29;20151;-43
2021/06/13 03:32:29;;;;;;;31.48;7.90;;;;;;;-145.50;100.00;65435.88;4917301;29;20051;-46
2021/06/13 03:34:57;;;;;;;24.27;9.23;;;;;;;-145.50;100.00;65435.88;4916852;29;20245;-44
2021/06/13 03:37:24;;;;;;;22.85;8.93;;;;;;;-145.50;100.00;65435.88;4918738;29;20146;-44
2021/06/13 03:39:51;;;;;;;23.27;8.90;;;;;;;-145.50;100.00;65435.88;4899408;29;20071;-44
2021/06/13 03:42:19;;;;;;;22.60;8.73;;;;;;;-145.50;100.00;65435.88;4912230;29;20110;-43
2021/06/13 03:44:47;;;;;;;28.55;9.70;;;;;;;-145.50;100.00;65435.88;4918014;29;20135;-43
2021/06/13 03:47:14;;;;;;;28.27;10.15;;;;;;;-145.50;100.00;65435.88;4925467;29;20812;-42
2021/06/13 03:49:41;;;;;;;20.95;8.57;;;;;;;-145.50;100.00;65435.88;4903204;29;20430;-42
2021/06/13 03:52:07;;;;;;;18.00;9.02;;;;;;;-145.50;100.00;65435.88;4902941;29;20154;-42
2021/06/13 03:54:34;;;;;;;26.30;9.77;;;;;;;-145.50;100.00;65435.88;4916455;29;20150;-43
2021/06/13 03:57:07;;;;;;;29.05;10.10;;;;;;;-145.50;100.00;65435.88;4924902;29;20139;-43
2021/06/13 03:59:35;;;;;;;19.70;8.30;;;;;;;-145.50;100.00;65435.88;4923019;29;20162;-46
2021/06/13 04:02:04;;;;;;;21.00;8.70;;;;;;;-145.50;100.00;65435.88;4916982;29;20091;-45
2021/06/13 04:04:38;;;;;;;24.33;8.85;;;;;;;-145.50;100.00;65435.88;4920331;29;20535;-43
2021/06/13 04:07:07;;;;;;;24.48;9.02;;;;;;;-145.50;100.00;65435.88;4906158;29;20559;-43
2021/06/13 04:09:36;;;;;;;23.90;9.38;;;;;;;-145.50;100.00;65435.88;4925293;29;20097;-42
2021/06/13 04:12:04;;;;;;;18.27;8.30;;;;;;;-145.50;100.00;65435.88;4917843;29;20070;-43
2021/06/13 04:14:31;;;;;;;25.70;9.40;;;;;;;-145.50;100.00;65435.88;4920144;29;20062;-45
2021/06/13 04:16:59;;;;;;;18.42;8.88;;;;;;;-145.50;100.00;65435.88;4915356;29;20098;-44
2021/06/13 04:19:26;;;;;;;20.08;9.32;;;;;;;-145.50;100.00;65435.88;4919465;29;20563;-46
2021/06/13 04:21:53;;;;;;;20.40;9.45;;;;;;;-145.50;100.00;65435.88;4923046;29;20083;-44
2021/06/13 04:24:21;;;;;;;19.38;9.05;;;;;;;-145.50;100.00;65435.88;4919286;29;20883;-42
2021/06/13 04:26:48;;;;;;;24.80;9.60;;;;;;;-145.50;100.00;65435.88;4924041;29;20158;-43
2021/06/13 04:29:15;;;;;;;26.40;9.48;;;;;;;-145.50;100.00;65435.88;4916846;29;20151;-45
2021/06/13 04:31:42;;;;;;;29.70;10.40;;;;;;;-145.50;100.00;65435.88;4917384;29;20138;-42
2021/06/13 04:34:08;;;;;;;28.13;10.68;;;;;;;-145.50;100.00;65435.88;4905644;29;20703;-43
2021/06/13 04:36:34;;;;;;;26.63;10.27;;;;;;;-145.50;100.00;65435.88;4915375;29;20142;-43
2021/06/13 04:39:01;;;;;;;20.35;9.65;;;;;;;-145.50;100.00;65435.88;4920290;28;20146;-43
2021/06/13 04:41:28;;;;;;;28.27;10.23;;;;;;;-145.50;100.00;65435.88;4918581;29;20048;-43
2021/06/13 04:43:54;;;;;;;20.13;9.23;;;;;;;-145.50;100.00;65435.88;4918964;29;20158;-45
2021/06/13 04:46:23;;;;;;;22.63;9.52;;;;;;;-145.50;100.00;65435.88;4915185;29;20087;-46
2021/06/13 04:48:50;;;;;;;29.60;9.70;;;;;;;-145.50;100.00;65435.88;4909450;29;20055;-44
2021/06/13 04:51:16;;;;;;;23.23;9.85;;;;;;;-145.50;100.00;65435.88;4914066;29;20563;-42
2021/06/13 04:53:52;;;;;;;21.52;8.63;;;;;;;-145.50;100.00;65435.88;4915735;29;20107;-43
2021/06/13 04:56:27;;;;;;;20.88;8.75;;;;;;;-145.50;100.00;65435.88;4919139;29;20753;-43
2021/06/13 04:58:53;;;;;;;24.50;9.65;;;;;;;-145.50;100.00;65435.88;4904107;29;20138;-44
2021/06/13 05:01:20;;;;;;;20.83;9.05;;;;;;;-145.50;100.00;65435.88;4919505;29;20142;-42
2021/06/13 05:03:47;;;;;;;23.10;9.27;;;;;;;-145.50;100.00;65435.88;4900037;29;20769;-45
2021/06/13 05:06:13;;;;;;;22.70;9.05;;;;;;;-145.50;100.00;65435.88;4923466;29;20757;-46
2021/06/13 05:08:41;;;;;;;26.85;9.48;;;;;;;-145.50;100.00;65435.88;4900933;29;20052;-43
2021/06/13 05:11:08;;;;;;;25.98;9.35;;;;;;;-145.50;100.00;65435.88;4907170;29;20151;-43
2021/06/13 05:13:35;;;;;;;21.42;8.60;;;;;;;-145.50;100.00;65435.88;4915416;29;20143;-45
2021/06/13 05:16:02;;;;;;;25.85;8.27;;;;;;;-145.50;100.00;65435.88;4917008;29;20146;-43
2021/06/13 05:18:29;;;;;;;19.20;8.80;;;;;;;-145.50;100.00;65435.88;4924180;29;20147;-43
2021/06/13 05:20:56;;;;;;;27.20;9.13;;;;;;;-145.50;100.00;65435.88;4913207;29;20662;-44
2021/06/13 05:23:23;;;;;;;24.67;9.15;;;;;;;-145.50;100.00;65435.88;4905618;29;20094;-45
2021/06/13 05:25:52;;;;;;;22.08;9.25;;;;;;;-145.50;100.00;65435.88;4910179;29;20162;-43
2021/06/13 05:28:19;;;;;;;;;;;;;;;-145.50;100.00;65435.88;4916690;29;20801;-43
2021/06/13 05:30:46;;;;;;;27.88;8.43;;;;;;;-145.50;100.00;65435.88;4909837;29;19934;-43
2021/06/13 05:33:12;;;;;;;19.00;8.13;;;;;;;-145.50;100.00;65435.88;4921419;29;20070;-43
2021/06/13 05:35:41;;;;;;;21.00;7.95;;;;;;;-145.50;100.00;65435.88;4917712;28;20150;-44
2021/06/13 05:38:08;;;;;;;18.33;7.93;;;;;;;-145.50;100.00;65435.88;4926617;29;20151;-44
2021/06/13 05:40:35;;;;;;;23.10;8.38;;;;;;;-145.50;100.00;65435.88;4928307;29;20471;-43
2021/06/13 05:43:02;;;;;;;22.85;7.95;;;;;;;-145.50;100.00;65435.88;4915405;29;20843;-43
2021/06/13 05:45:31;;;;;;;25.70;7.80;;;;;;;-145.50;100.00;65435.88;4924132;29;20098;-43
2021/06/13 05:47:58;;;;;;;15.80;6.72;;;;;;;-145.50;100.00;65435.88;4922478;29;20146;-43
2021/06/13 05:50:25;;;;;;;20.30;7.00;;;;;;;-145.50;100.00;65435.88;4928334;29;20162;-43
2021/06/13 05:52:56;;;;;;;20.13;7.38;;;;;;;-145.50;100.00;65435.88;4903774;29;20048;-43
2021/06/13 05:55:23;;;;;;;20.05;7.28;;;;;;;-145.50;100.00;65435.88;4909205;29;20452;-45
2021/06/13 05:57:50;;;;;;;22.95;7.05;;;;;;;-145.50;100.00;65435.88;4921721;29;20123;-42
2021/06/13 06:00:23;;;;;;;20.98;7.20;;;;;;;-145.50;100.00;65435.88;4926533;29;20052;-45
2021/06/13 06:02:49;;;;;;;19.95;6.55;;;;;;;-145.50;100.00;65435.88;4918243;29;20059;-43
2021/06/13 06:05:18;;;;;;;30.27;7.53;;;;;;;-145.50;100.00;65435.88;4916882;29;20850;-43
2021/06/13 06:07:45;;;;;;;17.25;6.57;;;;;;;-145.50;100.00;65435.88;4926495;29;20134;-43
2021/06/13 06:10:13;;;;;;;27.15;7.15;;;;;;;-145.50;100.00;65435.88;4916301;29;20147;-43
2021/06/13 06:12:40;;;;;;;22.00;6.97;;;;;;;-145.50;100.00;65435.88;4920764;29;20131;-44
2021/06/13 06:15:08;;;;;;;25.38;6.63;;;;;;;-145.50;100.00;65435.88;4916057;29;20420;-44
2021/06/13 06:17:37;;;;;;;21.92;7.68;;;;;;;-145.50;100.00;65435.88;4931035;29;20052;-42
2021/06/13 06:20:06;;;;;;;20.40;7.25;;;;;;;-145.50;100.00;65435.88;4922083;29;20136;-44
2021/06/13 06:22:32;;;;;;;;;;;;;;;-145.50;100.00;65435.88;4923177;29;20115;-45
2021/06/13 06:24:59;;;;;;;16.58;6.30;;;;;;;-145.50;100.00;65435.88;4923077;29;20025;-44
2021/06/13 06:27:25;;;;;;;18.73;6.10;;;;;;;-145.50;100.00;65435.88;4921032;29;20048;-43
2021/06/13 06:29:52;;;;;;;25.00;6.75;;;;;;;-145.50;100.00;65435.88;4924424;29;20098;-43
2021/06/13 06:32:18;;;;;;;20.65;6.80;;;;;;;-145.50;100.00;65435.88;4917702;29;20496;-44
2021/06/13 06:34:45;;;;;;;21.90;6.72;;;;;;;-145.50;100.00;65435.88;4913133;29;20147;-45
2021/06/13 06:37:11;;;;;;;14.68;6.07;;;;;;;-145.50;100.00;65435.88;4912533;29;20135;-43
2021/06/13 06:39:38;;;;;;;19.33;6.10;;;;;;;-145.50;100.00;65435.88;4923471;29;20139;-42
2021/06/13 06:42:04;;;;;;;17.08;6.93;;;;;;;-145.50;100.00;65435.88;4914522;29;20162;-42
2021/06/13 06:44:31;;;;;;;19.02;6.22;;;;;;;-145.50;100.00;65435.88;4913135;29;20154;-43
2021/06/13 06:47:02;;;;;;;16.52;6.63;;;;;;;-145.50;100.00;65435.88;4920563;29;20150;-42
2021/06/13 06:49:30;;;;;;;25.00;6.65;;;;;;;-145.50;100.00;65435.88;4913256;29;20134;-42
2021/06/13 06:51:57;;;;;;;17.85;6.32;;;;;;;-145.50;100.00;65435.88;4915206;29;20855;-43
2021/06/13 06:54:24;;;;;;;18.35;7.07;;;;;;;-145.50;100.00;65435.88;4911825;29;20079;-43
2021/06/13 06:56:51;;;;;;;16.67;6.60;;;;;;;-145.50;100.00;65435.88;4921419;29;20171;-42
2021/06/13 06:59:18;;;;;;;18.58;6.65;;;;;;;-145.50;100.00;65435.88;4921519;29;20551;-45
2021/06/13 07:01:44;;;;;;;18.83;5.97;;;;;;;-145.50;100.00;65435.88;4903275;29;20055;-42
2021/06/13 07:04:11;;;;;;;19.17;6.35;;;;;;;-145.50;100.00;65435.88;4907528;29;20063;-44
2021/06/13 07:06:37;;;;;;;15.52;6.50;;;;;;;-145.50;100.00;65435.88;4901579;29;20138;-42
2021/06/13 07:09:04;;;;;;;15.50;6.28;;;;;;;-145.50;100.00;65435.88;4912375;29;20091;-43
2021/06/13 07:11:30;;;;;;;21.92;6.28;;;;;;;-145.50;100.00;65435.88;4907619;29;20167;-43
2021/06/13 07:13:57;;;;;;;19.13;6.95;;;;;;;-145.50;100.00;65435.88;4917104;29;20556;-43
2021/06/13 07:16:24;;;;;;;18.88;6.25;;;;;;;-145.50;100.00;65435.88;4917587;29;20238;-43
2021/06/13 07:18:51;;;;;;;17.40;6.80;;;;;;;-145.50;100.00;65435.88;4922208;29;20066;-46
2021/06/13 07:21:17;;;;;;;21.27;6.55;;;;;;;-145.50;100.00;65435.88;4901076;29;20162;-43
2021/06/13 07:23:44;;;;;;;17.38;6.40;;;;;;;-145.50;100.00;65435.88;4902967;29;20824;-43
2021/06/13 07:26:10;;;;;;;20.42;6.40;;;;;;;-145.50;100.00;65435.88;4918189;29;20099;-42
2021/06/13 07:28:37;;;;;;;14.10;6.28;;;;;;;-145.50;100.00;65435.88;4886194;29;20146;-45
2021/06/13 07:31:04;;;;;;;18.98;6.40;;;;;;;-145.50;100.00;65435.88;4917354;29;20091;-44
2021/06/13 07:33:30;;;;;;;15.88;5.63;;;;;;;-145.50;100.00;65435.88;4905909;29;20060;-43
2021/06/13 07:35:57;;;;;;;16.30;5.97;;;;;;;-145.50;100.00;65435.88;4910422;29;20197;-44
2021/06/13 07:38:24;;;;;;;15.05;5.72;;;;;;;-145.50;100.00;65435.88;4920332;29;20165;-42
2021/06/13 07:40:51;;;;;;;12.88;6.38;;;;;;;-145.50;100.00;65435.88;4911035;29;20143;-43
2021/06/13 07:43:18;;;;;;;13.52;5.63;;;;;;;-145.50;100.00;65435.88;4907638;29;20158;-45
2021/06/13 07:45:45;;;;;;;20.73;6.13;;;;;;;-145.50;100.00;65435.88;4899160;29;20130;-43
2021/06/13 07:48:12;;;;;;;18.42;6.13;;;;;;;-145.50;100.00;65435.88;4903543;29;20512;-44
2021/06/13 07:50:41;;;;;;;14.32;5.43;;;;;;;-145.50;100.00;65435.88;4905952;29;20150;-43
2021/06/13 07:53:09;;;;;;;14.45;5.30;;;;;;;-145.50;100.00;65435.88;4916874;29;20142;-42
2021/06/13 07:55:35;;;;;;;17.52;6.07;;;;;;;-145.50;100.00;65435.88;4914429;29;20131;-43
2021/06/13 07:58:03;;;;;;;13.85;4.93;;;;;;;-145.50;100.00;65435.88;4923675;29;20159;-43
2021/06/13 08:00:29;;;;;;;17.25;5.68;;;;;;;-145.50;100.00;65435.88;4913554;29;20061;-47
2021/06/13 08:02:56;;;;;;;16.75;5.93;;;;;;;-145.50;100.00;65435.88;4911452;29;20087;-46
2021/06/13 08:05:27;;;;;;;16.85;5.95;;;;;;;-145.50;100.00;65435.88;4921805;29;20059;-44
2021/06/13 08:07:57;;;;;;;17.73;5.72;;;;;;;-145.50;100.00;65435.88;4915883;29;20131;-43
2021/06/13 08:10:24;;;;;;;17.77;6.97;;;;;;;-145.50;100.00;65435.88;4914032;29;20087;-43
2021/06/13 08:12:50;;;;;;;21.88;6.47;;;;;;;-145.50;100.00;65435.88;4912096;28;20142;-43
2021/06/13 08:15:18;;;;;;;15.75;5.68;;;;;;;-145.50;100.00;65435.88;4914470;29;20055;-49
2021/06/13 08:17:45;;;;;;;13.30;5.70;;;;;;;-145.50;100.00;65435.88;4914132;29;20087;-46
2021/06/13 08:20:12;;;;;;;14.43;6.20;;;;;;;-145.50;100.00;65435.88;4925810;29;20082;-44
2021/06/13 08:22:39;;;;;;;17.20;6.53;;;;;;;-145.50;100.00;65435.88;4923452;29;20151;-44
2021/06/13 08:25:06;;;;;;;14.98;6.00;;;;;;;-145.50;100.00;65435.88;4919024;29;20629;-45
2021/06/13 08:27:33;;;;;;;20.30;5.88;;;;;;;-145.50;100.00;65435.88;4918977;29;20492;-44
2021/06/13 08:30:00;;;;;;;17.63;6.05;;;;;;;-145.50;100.00;65435.88;4915766;29;20060;-43
2021/06/13 08:32:27;;;;;;;21.35;5.95;;;;;;;-145.50;100.00;65435.88;4923140;29;20095;-42
2021/06/13 08:34:54;;;;;;;15.13;5.78;;;;;;;-145.50;100.00;65435.88;4911201;29;20056;-44
2021/06/13 08:37:20;;;;;;;17.73;5.80;;;;;;;-145.50;100.00;65435.88;4908220;29;20583;-43
2021/06/13 08:39:47;;;;;;;17.85;6.13;;;;;;;-145.50;100.00;65435.88;4919700;29;20130;-42
2021/06/13 08:42:14;;;;;;;16.98;5.63;;;;;;;-145.50;100.00;65435.88;4912748;29;20091;-45
2021/06/13 08:44:41;;;;;;;13.02;5.72;;;;;;;-145.50;100.00;65435.88;4915014;29;20097;-44
2021/06/13 08:47:12;;;;;;;15.68;6.07;;;;;;;-145.50;100.00;65435.88;4909539;28;20829;-43
2021/06/13 08:49:40;;;;;;;14.25;4.97;;;;;;;-145.50;100.00;65435.88;4922489;29;20052;-44
2021/06/13 08:52:08;;;;;;;16.70;5.75;;;;;;;-145.50;100.00;65435.88;4913264;29;20151;-45
2021/06/13 08:54:35;;;;;;;14.95;6.20;;;;;;;-145.50;100.00;65435.88;4923650;29;20063;-43
2021/06/13 08:57:01;;;;;;;11.77;5.05;;;;;;;-145.50;100.00;65435.88;4913481;29;20594;-46
2021/06/13 08:59:28;;;;;;;20.60;6.18;;;;;;;-145.50;100.00;65435.88;4923400;29;20062;-44
2021/06/13 09:01:56;;;;;;;18.65;6.30;;;;;;;-145.50;100.00;65435.88;4919208;29;20130;-44
2021/06/13 09:04:22;;;;;;;13.63;5.20;;;;;;;-145.50;100.00;65435.88;4922287;29;20678;-43
2021/06/13 09:06:50;;;;;;;17.50;5.93;;;;;;;-145.50;100.00;65435.88;4925714;29;20083;-43
2021/06/13 09:09:19;;;;;;;18.05;6.20;;;;;;;-145.50;100.00;65435.88;4919358;29;20106;-44
2021/06/13 09:12:04;;;;;;;14.60;5.88;;;;;;;-145.50;100.00;65435.88;4923445;29;20485;-46
2021/06/13 09:14:37;;;;;;;15.20;5.65;;;;;;;-145.50;100.00;65435.88;4917084;29;20055;-45
2021/06/13 09:17:12;;;;;;;14.75;5.25;;;;;;;-145.50;100.00;65435.88;4930592;29;20079;-43
2021/06/13 09:20:20;;;;;;;14.35;5.55;;;;;;;-145.50;100.00;65435.88;4920169;29;20055;-43
2021/06/13 09:23:11;;;;;;;17.48;5.15;;;;;;;-145.50;100.00;65435.88;4925255;29;20548;-44
2021/06/13 09:25:41;;;;;;;11.90;5.07;;;;;;;-145.50;100.00;65435.88;4908723;29;20163;-43
2021/06/13 09:28:21;;;;;;;11.52;4.82;;;;;;;-145.50;100.00;65435.88;4919264;29;20135;-47
2021/06/13 09:30:51;;;;;;;15.07;5.28;;;;;;;-145.50;100.00;65435.88;4914435;29;20179;-45
2021/06/13 09:33:21;;;;;;;17.63;6.00;;;;;;;-145.50;100.00;65435.88;4918947;29;20858;-44
2021/06/13 09:35:49;;;;;;;14.52;5.07;;;;;;;-145.50;100.00;65435.88;4909570;29;20142;-46
2021/06/13 09:38:43;;;;;;;14.68;5.53;;;;;;;-145.50;100.00;65435.88;4927846;29;20099;-45
2021/06/13 09:41:14;;;;;;;16.10;5.60;;;;;;;-145.50;100.00;65435.88;4886717;29;20560;-46
2021/06/13 09:43:47;;;;;;;14.45;5.18;;;;;;;-145.50;100.00;65435.88;4889797;29;20777;-45
2021/06/13 09:46:23;;;;;;;13.02;5.70;;;;;;;-145.50;100.00;65435.88;4922926;29;20083;-44
2021/06/13 09:49:19;;;;;;;15.20;5.70;;;;;;;-145.50;100.00;65435.88;4921982;29;20090;-43
2021/06/13 09:51:48;;;;;;;13.70;4.60;;;;;;;-145.50;100.00;65435.88;4908128;29;20083;-48
2021/06/13 09:54:26;;;;;;;13.55;5.32;;;;;;;-145.50;100.00;65435.88;4912691;29;20578;-45
2021/06/13 09:56:56;;;;;;;11.02;5.13;;;;;;;-145.50;100.00;65435.88;4926208;29;20127;-46
2021/06/13 09:59:25;;;;;;;16.42;5.65;;;;;;;-145.50;100.00;65435.88;4921757;29;20138;-46
2021/06/13 10:01:54;;;;;;;10.40;4.85;;;;;;;-145.50;100.00;65435.88;4928138;29;20146;-44
2021/06/13 10:04:22;;;;;;;14.05;4.65;;;;;;;-145.50;100.00;65435.88;4919200;29;20138;-46
2021/06/13 10:06:51;;;;;;;17.60;4.87;;;;;;;-145.50;100.00;65435.88;4927261;29;20087;-45
2021/06/13 10:09:20;;;;;;;13.80;4.85;;;;;;;-145.50;100.00;65435.88;4922659;29;20168;-44
2021/06/13 10:11:49;;;;;;;13.95;6.00;;;;;;;-145.50;100.00;65435.88;4912175;29;20503;-45
2021/06/13 10:14:18;;;;;;;12.77;5.28;;;;;;;-145.50;100.00;65435.88;4920883;29;20056;-46
2021/06/13 10:16:50;;;;;;;18.15;5.78;;;;;;;-145.50;100.00;65435.88;4926813;28;20094;-46
2021/06/13 10:19:24;;;;;;;13.20;5.60;;;;;;;-145.50;100.00;65435.88;4922727;29;20114;-46
2021/06/13 10:22:01;;;;;;;12.32;5.28;;;;;;;-145.50;100.00;65435.88;4903202;29;20123;-46
2021/06/13 10:24:34;;;;;;;15.65;6.18;;;;;;;-145.50;100.00;65435.88;4917575;29;20091;-44
2021/06/13 10:27:06;;;;;;;14.88;6.35;;;;;;;-145.50;100.00;65435.88;4922956;29;20055;-45
2021/06/13 10:29:35;;;;;;;17.83;5.43;;;;;;;-145.50;100.00;65435.88;4920881;29;20066;-46
2021/06/13 10:32:04;;;;;;;18.83;6.13;;;;;;;-145.50;100.00;65435.88;4915601;29;20138;-45
2021/06/13 10:34:32;;;;;;;14.07;6.18;;;;;;;-145.50;100.00;65435.88;4920639;29;20060;-46
2021/06/13 10:37:01;;;;;;;16.13;5.70;;;;;;;-145.50;100.00;65435.88;4895693;29;20067;-44
2021/06/13 10:39:30;;;;;;;11.43;5.43;;;;;;;-145.50;100.00;65435.88;4908363;29;21005;-44
2021/06/13 10:41:57;;;;;;;14.20;6.20;;;;;;;-145.50;100.00;65435.88;4916999;29;20562;-44
2021/06/13 10:44:27;;;;;;;13.88;5.55;;;;;;;-145.50;100.00;65435.88;4922056;29;20425;-45
2021/06/13 10:46:56;;;;;;;14.70;5.82;;;;;;;-145.50;100.00;65435.88;4914266;29;20098;-46
2021/06/13 10:49:38;;;;;;;15.43;5.63;;;;;;;-145.50;100.00;65435.88;4905897;29;20626;-45
2021/06/13 10:52:06;;;;;;;13.93;5.88;;;;;;;-145.50;100.00;65435.88;4917058;29;20857;-47
2021/06/13 10:54:38;;;;;;;15.75;6.80;;;;;;;-145.50;100.00;65435.88;4918641;29;20143;-45
2021/06/13 10:57:04;;;;;;;18.23;6.15;;;;;;;-145.50;100.00;65435.88;4917500;29;20193;-46
2021/06/13 10:59:42;;;;;;;19.73;6.15;;;;;;;-145.50;100.00;65435.88;4926375;29;20055;-46
2021/06/13 11:02:22;;;;;;;16.00;5.82;;;;;;;-145.50;100.00;65435.88;4903646;29;20496;-45
2021/06/13 11:04:56;;;;;;;13.77;6.03;;;;;;;-145.50;100.00;65435.88;4912852;29;20138;-48
2021/06/13 11:08:02;;;;;;;15.77;5.55;;;;;;;-145.50;100.00;65435.88;4902226;29;20052;-45
2021/06/13 11:10:28;;;;;;;14.20;5.10;;;;;;;-145.50;100.00;65435.88;4916223;29;20488;-45
2021/06/13 11:13:02;;;;;;;18.20;6.03;;;;;;;-145.50;100.00;65435.88;4914224;29;20128;-47